createdAt,value
2018-07-10T00:00:10.694Z,68.07
2018-07-10T00:02:50.517Z,68.42
2018-07-10T00:05:32.787Z,67.82
2018-07-10T00:10:42.186Z,68.31
2018-07-10T00:13:11.637Z,68.84
2018-07-10T00:15:41.464Z,68.66
2018-07-10T00:18:10.954Z,69.76
2018-07-10T00:20:40.666Z,69.26
2018-07-10T00:23:09.862Z,69.78
2018-07-10T00:25:38.794Z,69.80
2018-07-10T00:28:07.736Z,69.69
2018-07-10T00:30:36.746Z,70.48
2018-07-10T00:33:05.786Z,69.86
2018-07-10T00:35:35.095Z,69.96
2018-07-10T00:38:14.660Z,70.94
2018-07-10T00:40:43.529Z,70.91
2018-07-10T00:43:13.119Z,70.44
2018-07-10T00:45:42.046Z,70.74
2018-07-10T00:48:11.602Z,70.78
2018-07-10T00:50:40.471Z,71.71
2018-07-10T00:53:10.175Z,71.10
2018-07-10T00:55:39.909Z,72.53
2018-07-10T00:58:09.358Z,72.00
2018-07-10T01:00:39.090Z,72.38
2018-07-10T01:03:08.145Z,72.33
2018-07-10T01:05:36.976Z,72.23
2018-07-10T01:08:06.607Z,72.35
2018-07-10T01:10:35.511Z,72.68
2018-07-10T01:13:04.770Z,72.77
2018-07-10T01:15:33.547Z,73.22
2018-07-10T01:18:03.060Z,72.09
2018-07-10T01:20:31.905Z,72.60
2018-07-10T01:23:00.817Z,72.57
2018-07-10T01:25:29.709Z,72.71
2018-07-10T01:27:58.607Z,73.36
2018-07-10T01:30:27.625Z,73.09
2018-07-10T01:32:56.594Z,72.99
2018-07-10T01:35:26.022Z,72.73
2018-07-10T01:37:54.926Z,73.18
2018-07-10T01:40:23.759Z,73.76
2018-07-10T01:42:52.629Z,73.53
2018-07-10T01:45:21.536Z,74.15
2018-07-10T01:47:50.831Z,73.77
2018-07-10T01:50:19.683Z,74.30
2018-07-10T01:52:49.711Z,74.95
2018-07-10T01:55:18.538Z,74.77
2018-07-10T01:57:51.874Z,75.80
2018-07-10T02:00:31.558Z,76.11
2018-07-10T02:03:00.385Z,76.33
2018-07-10T02:05:29.668Z,76.33
2018-07-10T02:07:59.274Z,76.27
2018-07-10T02:10:28.091Z,75.12
2018-07-10T02:12:57.784Z,74.45
2018-07-10T02:15:27.295Z,73.94
2018-07-10T02:17:58.757Z,73.12
2018-07-10T02:20:29.882Z,73.09
2018-07-10T02:23:02.738Z,73.15
2018-07-10T02:25:31.637Z,72.18
2018-07-10T02:28:00.660Z,72.17
2018-07-10T02:30:29.559Z,71.83
2018-07-10T02:32:58.506Z,71.23
2018-07-10T02:35:27.395Z,71.48
2018-07-10T02:37:56.337Z,72.07
2018-07-10T02:40:25.539Z,71.52
2018-07-10T02:42:55.085Z,71.45
2018-07-10T02:45:23.900Z,71.44
2018-07-10T02:47:53.536Z,71.73
2018-07-10T02:50:22.435Z,70.82
2018-07-10T02:52:52.132Z,71.51
2018-07-10T02:55:21.526Z,71.27
2018-07-10T02:57:50.985Z,71.01
2018-07-10T03:00:19.852Z,70.54
2018-07-10T03:02:49.410Z,69.73
2018-07-10T03:05:18.302Z,68.60
2018-07-10T03:07:47.875Z,69.05
2018-07-10T03:10:16.726Z,68.01
2018-07-10T03:12:45.879Z,68.04
2018-07-10T03:15:15.430Z,67.50
2018-07-10T03:17:44.989Z,66.80
2018-07-10T03:20:14.938Z,65.40
2018-07-10T03:22:43.899Z,65.07
2018-07-10T03:25:12.696Z,64.81
2018-07-10T03:27:42.256Z,65.90
2018-07-10T03:30:11.164Z,67.15
2018-07-10T03:32:40.413Z,66.31
2018-07-10T03:35:09.629Z,66.67
2018-07-10T03:37:38.906Z,66.32
2018-07-10T03:40:08.130Z,65.11
2018-07-10T03:42:38.202Z,65.15
2018-07-10T03:45:09.166Z,64.96
2018-07-10T03:47:45.989Z,64.67
2018-07-10T03:50:14.882Z,64.63
2018-07-10T03:52:45.235Z,65.18
2018-07-10T03:55:15.350Z,65.88
2018-07-10T03:57:46.365Z,66.12
2018-07-10T04:00:16.427Z,67.41
2018-07-10T04:02:47.766Z,67.75
2018-07-10T04:05:17.086Z,68.16
2018-07-10T04:07:47.179Z,67.13
2018-07-10T04:10:18.645Z,67.70
2018-07-10T04:12:48.494Z,67.17
2018-07-10T04:15:17.654Z,67.52
2018-07-10T04:18:21.286Z,66.80
2018-07-10T04:20:58.074Z,66.45
2018-07-10T04:23:31.994Z,67.09
2018-07-10T04:26:02.418Z,66.62
2018-07-10T04:28:34.830Z,66.75
2018-07-10T04:31:14.922Z,65.96
2018-07-10T04:33:46.844Z,66.22
2018-07-10T04:36:17.125Z,65.50
2018-07-10T04:38:48.381Z,65.45
2018-07-10T04:41:22.540Z,64.60
2018-07-10T04:43:55.476Z,65.35
2018-07-10T04:46:28.617Z,64.66
2018-07-10T04:49:08.315Z,64.71
2018-07-10T04:51:44.467Z,64.48
2018-07-10T04:54:29.752Z,64.48
2018-07-10T04:57:08.870Z,64.80
2018-07-10T04:59:38.017Z,64.49
2018-07-10T05:02:07.676Z,63.97
2018-07-10T05:04:36.855Z,63.68
2018-07-10T05:07:08.782Z,63.03
2018-07-10T05:09:39.717Z,62.72
2018-07-10T05:12:09.286Z,61.98
2018-07-10T05:14:41.926Z,62.53
2018-07-10T05:17:11.601Z,63.54
2018-07-10T05:19:41.161Z,62.75
2018-07-10T05:22:11.385Z,63.24
2018-07-10T05:24:41.179Z,62.19
2018-07-10T05:27:10.928Z,62.29
2018-07-10T05:29:40.894Z,62.52
2018-07-10T05:32:10.999Z,62.16
2018-07-10T05:34:40.647Z,61.54
2018-07-10T05:37:11.422Z,62.30
2018-07-10T05:39:44.264Z,62.76
2018-07-10T05:42:14.557Z,62.72
2018-07-10T05:44:45.773Z,63.42
2018-07-10T05:47:15.344Z,63.66
2018-07-10T05:49:44.198Z,62.65
2018-07-10T05:52:14.115Z,62.31
2018-07-10T05:54:44.922Z,62.81
2018-07-10T05:57:14.251Z,62.40
2018-07-10T05:59:43.067Z,62.53
2018-07-10T06:02:12.373Z,62.78
2018-07-10T06:04:41.310Z,62.18
2018-07-10T06:07:12.985Z,62.32
2018-07-10T06:09:41.876Z,62.29
2018-07-10T06:12:11.074Z,61.63
2018-07-10T06:14:40.301Z,60.65
2018-07-10T06:17:10.907Z,60.60
2018-07-10T06:19:40.598Z,60.46
2018-07-10T06:22:09.716Z,59.59
2018-07-10T06:24:39.596Z,57.50
2018-07-10T06:27:09.530Z,56.60
2018-07-10T06:29:50.489Z,57.25
2018-07-10T06:32:21.089Z,54.95
2018-07-10T06:34:51.971Z,54.99
2018-07-10T06:37:30.251Z,55.29
2018-07-10T06:39:59.854Z,55.73
2018-07-10T06:42:34.904Z,55.82
2018-07-10T06:45:04.802Z,56.06
2018-07-10T06:47:42.038Z,56.49
2018-07-10T06:50:10.967Z,56.58
2018-07-10T06:52:43.345Z,56.47
2018-07-10T06:55:15.586Z,55.86
2018-07-10T06:57:50.005Z,56.03
2018-07-10T07:00:18.781Z,55.57
2018-07-10T07:02:47.750Z,55.11
2018-07-10T07:05:16.604Z,55.80
2018-07-10T07:07:45.976Z,55.19
2018-07-10T07:10:15.646Z,54.96
2018-07-10T07:12:45.290Z,55.23
2018-07-10T07:15:21.309Z,54.47
2018-07-10T07:17:51.946Z,54.77
2018-07-10T07:20:22.362Z,53.45
2018-07-10T07:22:51.529Z,53.63
2018-07-10T07:25:20.343Z,53.81
2018-07-10T07:27:50.388Z,53.20
2018-07-10T07:30:19.298Z,53.15
2018-07-10T07:32:48.895Z,53.11
2018-07-10T07:35:17.769Z,52.96
2018-07-10T07:37:46.654Z,53.13
2018-07-10T07:40:15.682Z,52.80
2018-07-10T07:42:45.103Z,52.56
2018-07-10T07:45:13.825Z,52.34
2018-07-10T07:47:44.019Z,52.77
2018-07-10T07:50:12.943Z,53.58
2018-07-10T07:52:43.136Z,52.65
2018-07-10T07:55:13.054Z,52.43
2018-07-10T07:57:42.568Z,53.07
2018-07-10T08:00:11.323Z,52.83
2018-07-10T08:02:40.461Z,51.98
2018-07-10T08:05:09.507Z,52.02
2018-07-10T08:07:39.281Z,51.62
2018-07-10T08:10:08.295Z,52.01
2018-07-10T08:12:37.223Z,51.59
2018-07-10T08:15:06.115Z,50.85
2018-07-10T08:17:37.810Z,51.02
2018-07-10T08:20:08.070Z,50.16
2018-07-10T08:22:36.994Z,50.45
2018-07-10T08:25:06.466Z,49.67
2018-07-10T08:27:37.744Z,50.05
2018-07-10T08:30:07.116Z,50.74
2018-07-10T08:32:37.777Z,50.05
2018-07-10T08:35:06.823Z,50.58
2018-07-10T08:37:35.810Z,50.38
2018-07-10T08:40:04.672Z,49.57
2018-07-10T08:42:34.590Z,49.58
2018-07-10T08:45:04.194Z,49.25
2018-07-10T08:47:35.030Z,49.73
2018-07-10T08:50:03.871Z,49.42
2018-07-10T08:52:33.588Z,49.69
2018-07-10T08:55:02.439Z,48.52
2018-07-10T08:57:31.951Z,48.99
2018-07-10T09:00:00.868Z,49.48
2018-07-10T09:02:29.750Z,49.25
2018-07-10T09:04:58.635Z,49.99
2018-07-10T09:07:28.777Z,49.93
2018-07-10T09:09:57.566Z,50.05
2018-07-10T09:12:26.431Z,50.03
2018-07-10T09:14:55.369Z,49.64
2018-07-10T09:17:25.015Z,49.31
2018-07-10T09:19:54.504Z,47.52
2018-07-10T09:22:23.396Z,48.57
2018-07-10T09:24:54.845Z,47.05
2018-07-10T09:27:24.902Z,47.37
2018-07-10T09:29:53.805Z,47.74
2018-07-10T09:32:28.078Z,48.09
2018-07-10T09:34:58.964Z,46.71
2018-07-10T09:37:35.513Z,47.09
2018-07-10T09:40:10.035Z,48.19
2018-07-10T09:42:44.678Z,47.64
2018-07-10T09:45:13.667Z,47.28
2018-07-10T09:47:43.283Z,47.55
2018-07-10T09:50:12.328Z,47.47
2018-07-10T09:52:42.487Z,48.20
2018-07-10T09:55:11.774Z,47.20
2018-07-10T09:57:43.652Z,47.10
2018-07-10T10:00:12.511Z,45.83
2018-07-10T10:02:42.098Z,45.78
2018-07-10T10:05:11.393Z,45.92
2018-07-10T10:07:41.370Z,46.39
2018-07-10T10:10:10.500Z,46.03
2018-07-10T10:12:39.773Z,44.50
2018-07-10T10:15:08.678Z,43.85
2018-07-10T10:17:38.392Z,44.47
2018-07-10T10:20:08.235Z,44.02
2018-07-10T10:22:37.835Z,44.59
2018-07-10T10:25:06.715Z,44.50
2018-07-10T10:27:36.286Z,44.86
2018-07-10T10:30:05.158Z,45.55
2018-07-10T10:32:34.049Z,45.26
2018-07-10T10:35:03.019Z,44.74
2018-07-10T10:37:31.919Z,44.53
2018-07-10T10:40:01.534Z,45.89
2018-07-10T10:42:31.368Z,45.24
2018-07-10T10:45:01.512Z,45.98
2018-07-10T10:47:32.270Z,45.83
2018-07-10T10:50:01.956Z,45.55
2018-07-10T10:52:31.409Z,45.65
2018-07-10T10:55:00.433Z,45.05
2018-07-10T10:57:33.697Z,45.86
2018-07-10T11:00:03.039Z,45.90
2018-07-10T11:02:31.914Z,46.07
2018-07-10T11:05:01.110Z,46.20
2018-07-10T11:07:31.642Z,46.02
2018-07-10T11:10:00.530Z,46.55
2018-07-10T11:12:31.198Z,47.69
2018-07-10T11:15:00.787Z,46.09
2018-07-10T11:17:35.114Z,45.60
2018-07-10T11:20:11.602Z,46.08
2018-07-10T11:22:46.166Z,46.27
2018-07-10T11:25:15.288Z,45.19
2018-07-10T11:28:03.369Z,43.85
2018-07-10T11:30:33.013Z,43.93
2018-07-10T11:33:03.148Z,43.51
2018-07-10T11:35:32.902Z,42.28
2018-07-10T11:38:03.986Z,41.94
2018-07-10T11:40:34.442Z,40.49
2018-07-10T11:43:05.778Z,40.22
2018-07-10T11:45:35.350Z,39.18
2018-07-10T11:48:05.160Z,38.15
2018-07-10T11:50:34.159Z,36.98
2018-07-10T11:53:03.847Z,38.00
2018-07-10T11:55:33.436Z,36.15
2018-07-10T11:58:02.474Z,36.78
2018-07-10T12:00:31.337Z,37.91
2018-07-10T12:03:00.234Z,37.54
2018-07-10T12:05:34.792Z,37.05
2018-07-10T12:08:04.351Z,36.33
2018-07-10T12:10:34.527Z,37.24
2018-07-10T12:13:03.441Z,37.11
2018-07-10T12:15:32.572Z,37.10
2018-07-10T12:18:02.693Z,35.87
2018-07-10T12:20:36.245Z,36.37
2018-07-10T12:23:06.743Z,35.46
2018-07-10T12:25:38.557Z,35.58
2018-07-10T12:28:10.764Z,37.59
2018-07-10T12:30:40.092Z,38.16
2018-07-10T12:33:09.594Z,38.04
2018-07-10T12:35:38.902Z,38.42
2018-07-10T12:38:07.833Z,38.63
2018-07-10T12:40:37.357Z,39.18
2018-07-10T12:43:06.264Z,39.35
2018-07-10T12:45:35.126Z,39.60
2018-07-10T12:48:04.486Z,40.04
2018-07-10T12:50:33.550Z,39.58
2018-07-10T12:53:03.578Z,40.54
2018-07-10T12:55:35.295Z,40.97
2018-07-10T12:58:04.159Z,40.08
2018-07-10T13:00:33.639Z,41.08
2018-07-10T13:03:02.543Z,40.30
2018-07-10T13:05:41.075Z,40.55
2018-07-10T13:08:11.044Z,40.90
2018-07-10T13:10:40.096Z,42.11
2018-07-10T13:13:08.988Z,41.17
2018-07-10T13:15:37.917Z,41.64
2018-07-10T13:18:07.864Z,42.04
2018-07-10T13:20:36.726Z,40.84
2018-07-10T13:23:05.575Z,41.20
2018-07-10T13:25:34.582Z,40.92
2018-07-10T13:28:04.746Z,41.53
2018-07-10T13:30:33.647Z,40.48
2018-07-10T13:33:02.710Z,40.17
2018-07-10T13:35:32.038Z,39.90
2018-07-10T13:38:02.953Z,39.58
2018-07-10T13:40:32.199Z,40.07
2018-07-10T13:43:01.637Z,39.04
2018-07-10T13:45:31.486Z,37.89
2018-07-10T13:48:01.054Z,38.34
2018-07-10T13:50:31.530Z,35.75
2018-07-10T13:53:01.985Z,35.65
2018-07-10T13:55:31.859Z,34.80
2018-07-10T13:58:33.528Z,34.48
2018-07-10T14:01:06.444Z,33.79
2018-07-10T14:03:35.819Z,33.51
2018-07-10T14:06:05.527Z,34.98
2018-07-10T14:08:35.965Z,34.90
2018-07-10T14:11:04.842Z,34.62
2018-07-10T14:13:33.736Z,34.56
2018-07-10T14:16:03.858Z,33.82
2018-07-10T14:18:33.381Z,35.64
2018-07-10T14:21:06.906Z,34.60
2018-07-10T14:23:37.502Z,33.78
2018-07-10T14:26:08.100Z,35.05
2018-07-10T14:28:37.165Z,35.07
2018-07-10T14:31:05.996Z,34.64
2018-07-10T14:33:34.979Z,35.07
2018-07-10T14:36:03.870Z,34.80
2018-07-10T14:38:34.023Z,34.66
2018-07-10T14:41:07.267Z,35.60
2018-07-10T14:43:41.191Z,35.01
2018-07-10T14:46:18.340Z,35.62
2018-07-10T14:48:52.078Z,34.91
2018-07-10T14:51:29.042Z,34.97
2018-07-10T14:53:57.890Z,35.97
2018-07-10T14:56:27.936Z,37.07
2018-07-10T14:58:56.859Z,39.13
2018-07-10T15:01:25.676Z,38.63
2018-07-10T15:03:54.532Z,39.94
2018-07-10T15:06:23.410Z,39.72
2018-07-10T15:08:52.955Z,39.31
2018-07-10T15:11:21.744Z,38.96
2018-07-10T15:14:00.900Z,40.24
2018-07-10T15:16:36.100Z,39.84
2018-07-10T15:19:06.037Z,38.97
2018-07-10T15:21:35.108Z,38.18
2018-07-10T15:24:05.226Z,37.08
2018-07-10T15:26:35.181Z,38.19
2018-07-10T15:29:04.134Z,37.39
2018-07-10T15:31:32.999Z,37.49
2018-07-10T15:34:02.849Z,35.90
2018-07-10T15:36:31.682Z,34.81
2018-07-10T15:39:00.617Z,34.19
2018-07-10T15:41:31.700Z,32.38
2018-07-10T15:44:00.452Z,33.35
2018-07-10T15:46:29.243Z,32.36
2018-07-10T15:48:59.144Z,35.93
2018-07-10T15:51:27.980Z,39.27
2018-07-10T15:53:56.780Z,41.54
2018-07-10T15:56:26.215Z,43.86
2018-07-10T15:58:55.029Z,44.32
2018-07-10T16:01:23.955Z,46.88
2018-07-10T16:03:53.059Z,47.05
2018-07-10T16:06:21.961Z,47.98
2018-07-10T16:08:51.770Z,46.83
2018-07-10T16:11:20.671Z,47.58
2018-07-10T16:13:49.570Z,47.46
2018-07-10T16:16:20.858Z,47.53
2018-07-10T16:18:58.137Z,46.75
2018-07-10T16:21:36.290Z,47.13
2018-07-10T16:24:05.324Z,47.43
2018-07-10T16:26:34.908Z,47.75
2018-07-10T16:29:08.282Z,47.75
2018-07-10T16:31:40.456Z,48.91
2018-07-10T16:34:11.018Z,48.34
2018-07-10T16:36:40.236Z,49.00
2018-07-10T16:39:09.447Z,48.05
2018-07-10T16:41:44.854Z,47.61
2018-07-10T16:44:13.787Z,47.55
2018-07-10T16:46:49.204Z,47.10
2018-07-10T16:49:29.102Z,46.47
2018-07-10T16:53:07.114Z,44.83
2018-07-10T16:55:36.926Z,44.00
2018-07-10T16:58:06.183Z,44.13
2018-07-10T17:00:35.082Z,41.02
2018-07-10T17:03:04.023Z,38.14
2018-07-10T17:05:32.919Z,38.35
2018-07-10T17:08:02.549Z,38.43
2018-07-10T17:10:31.396Z,37.16
2018-07-10T17:13:00.348Z,36.96
2018-07-10T17:15:29.279Z,36.98
2018-07-10T17:17:58.783Z,35.68
2018-07-10T17:20:27.648Z,35.95
2018-07-10T17:22:56.500Z,35.68
2018-07-10T17:25:25.392Z,35.26
2018-07-10T17:27:55.219Z,35.78
2018-07-10T17:30:24.138Z,35.28
2018-07-10T17:32:53.924Z,36.47
2018-07-10T17:35:23.206Z,36.90
2018-07-10T17:37:51.962Z,37.66
2018-07-10T17:40:20.855Z,36.91
2018-07-10T17:42:50.753Z,36.33
2018-07-10T17:45:22.042Z,35.83
2018-07-10T17:47:51.744Z,35.11
2018-07-10T17:50:21.066Z,33.84
2018-07-10T17:52:49.955Z,33.69
2018-07-10T17:55:18.897Z,32.47
2018-07-10T17:57:48.877Z,32.87
2018-07-10T18:00:17.738Z,32.12
2018-07-10T18:02:46.542Z,30.70
2018-07-10T18:05:15.394Z,31.83
2018-07-10T18:07:45.147Z,31.84
2018-07-10T18:10:14.158Z,31.90
2018-07-10T18:12:42.990Z,32.12
2018-07-10T18:15:12.441Z,32.76
2018-07-10T18:17:42.819Z,32.83
2018-07-10T18:20:13.043Z,33.83
2018-07-10T18:22:42.289Z,33.34
2018-07-10T18:25:11.734Z,33.59
2018-07-10T18:27:41.655Z,33.61
2018-07-10T18:30:11.568Z,34.00
2018-07-10T18:32:40.625Z,34.68
2018-07-10T18:35:10.641Z,34.31
2018-07-10T18:37:39.584Z,35.34
2018-07-10T18:40:08.490Z,36.04
2018-07-10T18:42:38.038Z,37.31
2018-07-10T18:45:06.935Z,38.86
2018-07-10T18:47:37.646Z,39.28
2018-07-10T18:50:07.009Z,40.20
2018-07-10T18:52:35.920Z,41.71
2018-07-10T18:55:04.861Z,41.38
2018-07-10T18:58:06.863Z,42.46
2018-07-10T19:01:01.344Z,44.32
2018-07-10T19:03:31.517Z,45.47
2018-07-10T19:06:04.416Z,45.47
2018-07-10T19:08:33.920Z,46.04
2018-07-10T19:11:03.505Z,46.88
2018-07-10T19:13:32.352Z,47.02
2018-07-10T19:16:02.124Z,48.04
2018-07-10T19:18:32.575Z,48.30
2018-07-10T19:21:08.587Z,49.12
2018-07-10T19:23:44.178Z,49.29
2018-07-10T19:26:14.285Z,49.23
2018-07-10T19:28:43.598Z,49.55
2018-07-10T19:31:18.175Z,51.16
2018-07-10T19:33:50.704Z,51.28
2018-07-10T19:36:19.529Z,52.28
2018-07-10T19:38:48.439Z,52.25
2018-07-10T19:41:19.982Z,52.17
2018-07-10T19:43:49.078Z,52.25
2018-07-10T19:46:18.004Z,53.31
2018-07-10T19:48:50.229Z,53.72
2018-07-10T19:51:21.895Z,54.22
2018-07-10T19:53:59.250Z,53.96
2018-07-10T19:56:29.099Z,54.01
2018-07-10T19:58:58.852Z,55.52
2018-07-10T20:01:39.621Z,55.26
2018-07-10T20:04:14.749Z,55.84
2018-07-10T20:06:50.726Z,55.48
2018-07-10T20:09:20.462Z,56.64
2018-07-10T20:12:03.367Z,56.60
2018-07-10T20:14:35.944Z,57.70
2018-07-10T20:17:10.281Z,56.55
2018-07-10T20:19:46.684Z,57.64
2018-07-10T20:23:23.219Z,58.45
2018-07-10T20:26:17.655Z,57.87
2018-07-10T20:28:59.366Z,58.71
2018-07-10T20:32:00.175Z,58.89
2018-07-10T20:34:40.355Z,59.40
2018-07-10T20:37:18.150Z,59.71
2018-07-10T20:39:47.154Z,59.74
2018-07-10T20:42:17.086Z,59.71
2018-07-10T20:44:52.364Z,60.66
2018-07-10T20:47:22.086Z,61.11
2018-07-10T20:50:00.451Z,61.23
2018-07-10T20:52:46.174Z,60.73
2018-07-10T20:55:15.397Z,61.25
2018-07-10T20:58:06.731Z,62.19
2018-07-10T21:00:39.958Z,61.84
2018-07-10T21:03:21.110Z,62.54
2018-07-10T21:05:51.273Z,62.74
2018-07-10T21:08:34.480Z,62.00
2018-07-10T21:11:14.100Z,62.56
2018-07-10T21:13:53.018Z,62.84
2018-07-10T21:17:04.984Z,63.03
2018-07-10T21:20:46.956Z,62.75
2018-07-10T21:23:26.563Z,63.50
2018-07-10T21:26:05.547Z,63.78
2018-07-10T21:28:42.360Z,64.89
2018-07-10T21:31:23.024Z,64.83
2018-07-10T21:33:59.964Z,64.28
2018-07-10T21:37:43.647Z,64.99
2018-07-10T21:40:32.378Z,64.98
2018-07-10T21:43:15.714Z,65.96
2018-07-10T21:46:56.483Z,65.56
2018-07-10T21:49:35.818Z,64.96
2018-07-10T21:52:04.751Z,65.28
2018-07-10T21:54:33.643Z,65.79
2018-07-10T21:57:03.387Z,65.93
2018-07-10T21:59:33.507Z,66.11
2018-07-10T22:02:09.753Z,67.18
2018-07-10T22:04:39.903Z,66.92
2018-07-10T22:07:13.514Z,66.11
2018-07-10T22:09:43.726Z,66.51
2018-07-10T22:12:15.437Z,66.50
2018-07-10T22:14:45.126Z,67.04
2018-07-10T22:17:15.824Z,67.75
2018-07-10T22:19:46.339Z,66.54
2018-07-10T22:22:20.102Z,67.80
2018-07-10T22:24:50.936Z,66.97
2018-07-10T22:27:21.109Z,68.13
2018-07-10T22:29:55.031Z,67.09
2018-07-10T22:32:31.330Z,67.34
2018-07-10T22:35:00.889Z,67.65
2018-07-10T22:37:29.742Z,68.87
2018-07-10T22:39:58.621Z,67.86
2018-07-10T22:42:28.145Z,68.46
2018-07-10T22:44:58.372Z,69.05
2018-07-10T22:47:30.951Z,68.50
2018-07-10T22:50:02.891Z,68.87
2018-07-10T22:52:31.828Z,69.37
2018-07-10T22:55:00.727Z,68.40
2018-07-10T22:57:30.454Z,69.38
2018-07-10T22:59:59.426Z,69.72
2018-07-10T23:02:28.158Z,69.54
2018-07-10T23:04:57.094Z,69.55
2018-07-10T23:07:26.696Z,69.06
2018-07-10T23:09:55.564Z,68.99
2018-07-10T23:12:24.463Z,68.89
2018-07-10T23:14:53.414Z,69.68
2018-07-10T23:17:22.953Z,69.55
2018-07-10T23:19:52.371Z,69.91
2018-07-10T23:22:21.343Z,68.77
2018-07-10T23:24:50.235Z,69.62
2018-07-10T23:27:19.694Z,69.21
2018-07-10T23:29:48.596Z,69.16
2018-07-10T23:32:17.484Z,69.00
2018-07-10T23:34:46.916Z,69.59
2018-07-10T23:37:17.153Z,69.61
2018-07-10T23:39:48.131Z,69.80
2018-07-10T23:42:33.411Z,70.26
2018-07-10T23:45:33.882Z,70.00
2018-07-10T23:48:05.235Z,69.66
2018-07-10T23:50:36.017Z,70.30
2018-07-10T23:54:13.491Z,70.31
2018-07-10T23:56:43.740Z,71.32
2018-07-10T23:59:13.899Z,70.17
